Time;durP1;ratioP1;P1;durP2;ratioP2;P2;SDS_P1;SDS_P2;PMS_P1;PMS_P2;Temp;Humidity;BMP_temperature;BMP_pressure;BME280_temperature;BME280_humidity;BME280_pressure;Samples;Min_cycle;Max_cycle;Signal;HPM_P1;HPM_P2
2022/10/04 00:02:33;;;;;;;1.30;0.90;;;;;;;21.39;41.44;95258.34;6232759;27;103092;-68
2022/10/04 00:05:40;;;;;;;1.13;1.13;;;;;;;21.39;41.24;95253.81;6234578;27;103083;-68
2022/10/04 00:08:48;;;;;;;1.87;1.20;;;;;;;21.37;41.14;95253.31;6222920;27;103059;-68
2022/10/04 00:11:55;;;;;;;1.73;1.37;;;;;;;21.37;41.06;95263.97;6226921;27;103166;-69
2022/10/04 00:15:02;;;;;;;2.63;1.07;;;;;;;21.36;41.55;95267.72;6246095;27;103717;-69
2022/10/04 00:18:18;;;;;;;1.37;1.17;;;;;;;21.36;41.43;95261.59;6222649;27;103174;-69
2022/10/04 00:21:23;;;;;;;1.27;1.03;;;;;;;21.35;41.35;95255.50;6228291;27;103187;-68
2022/10/04 00:24:28;;;;;;;1.47;1.30;;;;;;;21.35;41.13;95255.50;6227138;27;103241;-69
2022/10/04 00:27:31;;;;;;;1.80;1.33;;;;;;;21.35;41.23;95263.47;6229536;27;103312;-70
2022/10/04 00:30:38;;;;;;;1.40;1.27;;;;;;;21.37;41.33;95247.22;6248648;27;103702;-68
2022/10/04 00:33:43;;;;;;;1.47;1.17;;;;;;;21.36;41.06;95248.28;6239555;27;103301;-69
2022/10/04 00:36:54;;;;;;;1.10;1.00;;;;;;;21.35;41.29;95250.16;6230033;27;103231;-69
2022/10/04 00:40:01;;;;;;;1.00;1.00;;;;;;;21.33;40.94;95233.69;6247224;27;102978;-68
2022/10/04 00:43:07;;;;;;;1.50;1.03;;;;;;;21.36;40.98;95233.13;6225660;27;103297;-68
2022/10/04 00:46:13;;;;;;;1.20;1.10;;;;;;;21.34;41.12;95235.28;6224435;27;103174;-68
2022/10/04 00:49:20;;;;;;;1.10;1.07;;;;;;;21.36;41.03;95227.00;6241061;27;103103;-68
2022/10/04 00:52:29;;;;;;;1.10;1.00;;;;;;;21.36;41.39;95219.81;6244623;27;103415;-69
2022/10/04 00:55:38;;;;;;;1.10;1.00;;;;;;;21.34;41.41;95219.31;6228219;27;103048;-68
2022/10/04 00:59:03;;;;;;;1.50;1.40;;;;;;;21.35;40.97;95220.88;6214373;27;103231;-67
2022/10/04 01:02:15;;;;;;;1.33;1.23;;;;;;;21.36;41.60;95217.13;6247330;27;103003;-68
2022/10/04 01:05:23;;;;;;;1.37;1.27;;;;;;;21.34;41.34;95219.31;6240683;27;102797;-68
2022/10/04 01:08:31;;;;;;;1.20;1.10;;;;;;;21.32;41.13;95221.47;6224727;27;104111;-69
2022/10/04 01:11:40;;;;;;;1.13;1.03;;;;;;;21.34;41.22;95219.31;6246305;27;104084;-70
2022/10/04 01:14:51;;;;;;;1.27;1.17;;;;;;;21.33;41.28;95219.59;6247379;27;102974;-69
2022/10/04 01:18:13;;;;;;;1.10;1.00;;;;;;;21.30;41.47;95220.97;6232071;27;103962;-68
2022/10/04 01:21:28;;;;;;;1.50;1.20;;;;;;;21.32;41.01;95223.31;6212644;27;103103;-68
2022/10/04 01:24:36;;;;;;;1.10;1.00;;;;;;;21.32;41.18;95218.00;6230726;27;103037;-68
2022/10/04 01:27:43;;;;;;;0.93;0.93;;;;;;;21.31;40.97;95219.88;6234319;27;103128;-68
2022/10/04 01:30:51;;;;;;;1.13;1.03;;;;;;;21.31;41.32;95213.78;6232724;27;103203;-72
2022/10/04 01:33:55;;;;;;;1.00;1.00;;;;;;;21.26;40.77;95216.53;6238261;27;104962;-69
2022/10/04 01:37:00;;;;;;;0.97;0.97;;;;;;;21.28;40.92;95217.81;6222709;27;105055;-68
2022/10/04 01:40:06;;;;;;;0.90;0.90;;;;;;;21.29;41.12;95218.59;6228639;27;103199;-68
2022/10/04 01:43:13;;;;;;;0.90;0.90;;;;;;;21.30;41.25;95220.97;6214452;27;103166;-69
2022/10/04 01:46:21;;;;;;;1.20;1.00;;;;;;;21.28;40.96;95220.47;6227453;27;103200;-68
2022/10/04 01:49:30;;;;;;;0.90;0.90;;;;;;;21.32;40.92;95213.47;6225796;27;103396;-69
2022/10/04 01:52:39;;;;;;;1.13;0.97;;;;;;;21.31;41.16;95213.78;6225968;27;103324;-68
2022/10/04 01:55:48;;;;;;;1.90;1.10;;;;;;;21.32;41.07;95210.03;6236143;27;103131;-69
2022/10/04 01:58:57;;;;;;;0.90;0.63;;;;;;;21.30;41.42;95215.66;6222434;27;103055;-70
2022/10/04 02:02:05;;;;;;;1.37;1.20;;;;;;;21.32;41.36;95216.13;6234219;27;103501;-68
2022/10/04 02:05:12;;;;;;;1.37;1.10;;;;;;;21.30;40.76;95220.19;6240700;27;104722;-69
2022/10/04 02:08:18;;;;;;;1.10;1.00;;;;;;;21.28;41.36;95223.13;6243379;27;103639;-69
2022/10/04 02:11:23;;;;;;;1.20;1.10;;;;;;;21.28;41.41;95227.69;6245424;27;103449;-69
2022/10/04 02:14:28;;;;;;;1.10;1.10;;;;;;;21.29;41.09;95227.38;6236555;27;103141;-69
2022/10/04 02:17:38;;;;;;;1.63;1.00;;;;;;;21.27;40.92;95228.75;6218093;27;105179;-70
2022/10/04 02:20:42;;;;;;;0.97;0.90;;;;;;;21.29;41.21;95231.91;6229350;27;104896;-68
2022/10/04 02:23:47;;;;;;;1.03;0.93;;;;;;;21.30;41.01;95230.81;6245013;27;103561;-69
2022/10/04 02:26:53;;;;;;;1.30;1.00;;;;;;;21.24;41.11;95230.16;6246030;27;103100;-68
2022/10/04 02:30:01;;;;;;;1.20;1.10;;;;;;;21.26;41.08;95235.16;6221859;27;103057;-68
2022/10/04 02:33:03;;;;;;;0.90;0.90;;;;;;;21.27;40.72;95231.41;6239108;27;103134;-68
2022/10/04 02:36:08;;;;;;;1.60;0.90;;;;;;;21.25;40.96;95234.38;6235836;27;103307;-68
2022/10/04 02:39:16;;;;;;;1.00;1.00;;;;;;;21.24;41.35;95237.34;6224036;27;105950;-69
2022/10/04 02:42:28;;;;;;;1.10;1.00;;;;;;;21.26;40.98;95245.81;6239937;27;103008;-68
2022/10/04 02:45:40;;;;;;;1.30;1.17;;;;;;;21.25;40.89;95258.34;6240107;27;103318;-69
2022/10/04 02:48:47;;;;;;;1.30;1.20;;;;;;;21.26;41.18;95256.47;6226202;27;103108;-68
2022/10/04 02:51:54;;;;;;;1.30;0.90;;;;;;;21.25;41.37;95265.53;6230418;27;103836;-68
2022/10/04 02:55:02;;;;;;;0.97;0.97;;;;;;;21.24;41.42;95270.06;6242393;27;103183;-68
2022/10/04 02:58:14;;;;;;;1.23;1.13;;;;;;;21.22;41.44;95266.91;6225819;27;103027;-68
2022/10/04 03:01:26;;;;;;;1.20;1.10;;;;;;;21.22;41.36;95272.22;6227103;27;104234;-70
2022/10/04 03:04:32;;;;;;;1.27;0.93;;;;;;;21.24;41.21;95264.75;6219383;27;103942;-68
2022/10/04 03:07:36;;;;;;;1.17;1.07;;;;;;;21.21;41.09;95265.34;6222746;27;103103;-68
2022/10/04 03:10:43;;;;;;;0.90;0.90;;;;;;;21.23;41.26;95276.47;6225354;27;104527;-68
2022/10/04 03:13:49;;;;;;;1.13;1.03;;;;;;;21.23;41.03;95279.13;6216835;27;103208;-69
2022/10/04 03:16:55;;;;;;;1.03;0.90;;;;;;;21.19;41.14;95272.81;6237076;27;106105;-69
2022/10/04 03:20:00;;;;;;;1.00;1.00;;;;;;;21.23;41.29;95279.13;6228629;27;103182;-68
2022/10/04 03:23:04;;;;;;;1.10;1.00;;;;;;;21.23;41.17;95289.78;6250935;27;103090;-68
2022/10/04 03:26:20;;;;;;;1.77;1.10;;;;;;;21.18;41.08;95279.25;6232559;27;103208;-68
2022/10/04 03:29:28;;;;;;;1.00;0.90;;;;;;;21.21;41.63;95283.97;6249415;27;103640;-68
2022/10/04 03:32:32;;;;;;;0.93;0.93;;;;;;;21.21;41.41;95281.31;6246144;27;103424;-70
2022/10/04 03:35:39;;;;;;;1.00;1.00;;;;;;;21.23;41.57;95289.00;6227926;27;103079;-69
2022/10/04 03:38:42;;;;;;;1.27;1.17;;;;;;;21.20;41.29;95290.38;6219824;27;103039;-69
2022/10/04 03:41:45;;;;;;;1.63;1.10;;;;;;;21.21;40.99;95292.75;6233200;27;103624;-69
2022/10/04 03:44:53;;;;;;;1.23;1.07;;;;;;;21.20;41.52;95293.81;6239442;27;102937;-68
2022/10/04 03:48:04;;;;;;;1.30;1.10;;;;;;;21.20;41.51;95295.69;6231154;27;103357;-69
2022/10/04 03:51:13;;;;;;;1.03;0.90;;;;;;;21.19;40.96;95299.44;6248187;27;103052;-69
2022/10/04 03:54:22;;;;;;;1.87;1.20;;;;;;;21.20;41.04;95293.03;6235792;27;103956;-68
2022/10/04 03:57:26;;;;;;;1.10;1.00;;;;;;;21.18;41.41;95293.34;6230384;27;103395;-68
2022/10/04 04:00:31;;;;;;;1.30;1.20;;;;;;;21.18;41.70;95295.19;6230182;27;103309;-68
2022/10/04 04:03:47;;;;;;;1.93;1.20;;;;;;;21.19;40.91;95294.13;6224495;28;108107;-68
2022/10/04 04:07:01;;;;;;;1.00;1.00;;;;;;;21.19;41.13;95296.78;6224615;27;104224;-68
2022/10/04 04:10:12;;;;;;;1.10;1.00;;;;;;;21.15;41.18;95299.22;6217564;27;103146;-68
2022/10/04 04:13:24;;;;;;;1.23;0.80;;;;;;;21.18;41.32;95301.31;6219084;28;104801;-69
2022/10/04 04:16:28;;;;;;;1.30;1.20;;;;;;;21.17;41.27;95301.59;6223474;27;103627;-70
2022/10/04 04:19:33;;;;;;;1.00;0.97;;;;;;;21.15;41.12;95309.84;6222789;27;102950;-69
2022/10/04 04:22:38;;;;;;;1.33;1.10;;;;;;;21.19;41.32;95310.09;6211593;27;105823;-68
2022/10/04 04:25:44;;;;;;;1.07;0.97;;;;;;;21.15;41.05;95304.53;6223041;28;104653;-67
2022/10/04 04:28:51;;;;;;;1.50;1.17;;;;;;;21.15;41.38;95317.06;6223015;27;103510;-68
2022/10/04 04:32:00;;;;;;;1.10;1.00;;;;;;;21.16;41.55;95322.09;6227346;27;103030;-68
2022/10/04 04:35:07;;;;;;;1.20;1.10;;;;;;;21.16;41.07;95323.94;6235849;27;103759;-67
2022/10/04 04:38:17;;;;;;;1.20;1.03;;;;;;;21.15;41.09;95323.16;6223104;27;103507;-67
2022/10/04 04:41:22;;;;;;;1.23;0.87;;;;;;;21.15;41.53;95328.50;6223036;27;103148;-67
2022/10/04 04:44:26;;;;;;;1.33;1.23;;;;;;;21.16;41.21;95329.28;6221521;27;104373;-70
2022/10/04 04:47:33;;;;;;;1.20;1.10;;;;;;;21.15;41.35;95322.38;6225803;27;103121;-68
2022/10/04 04:50:39;;;;;;;1.23;1.13;;;;;;;21.16;41.27;95329.28;6242602;27;103336;-69
2022/10/04 04:53:43;;;;;;;1.13;1.03;;;;;;;21.15;41.37;95327.69;6244651;27;103494;-68
2022/10/04 04:56:49;;;;;;;1.40;1.30;;;;;;;21.15;41.01;95333.03;6242663;27;103313;-69
2022/10/04 04:59:57;;;;;;;1.43;1.20;;;;;;;21.15;40.86;95335.69;6231835;27;103115;-68
2022/10/04 05:03:04;;;;;;;1.33;1.23;;;;;;;21.14;41.01;95334.88;6248409;27;103128;-68
2022/10/04 05:06:25;;;;;;;1.13;1.10;;;;;;;21.15;41.05;95336.47;6228934;27;103167;-68
2022/10/04 05:09:33;;;;;;;1.40;1.30;;;;;;;21.15;41.14;95335.69;6229536;27;103133;-68
2022/10/04 05:12:36;;;;;;;2.00;1.30;;;;;;;21.16;41.19;95334.59;6238330;27;104401;-67
2022/10/04 05:15:42;;;;;;;1.37;1.20;;;;;;;21.16;40.93;95342.59;6226361;27;102985;-67
2022/10/04 05:18:46;;;;;;;1.40;1.30;;;;;;;21.17;41.31;95333.50;6223076;27;103723;-68
2022/10/04 05:21:53;;;;;;;1.20;1.10;;;;;;;21.18;40.94;95337.78;6232457;27;103262;-68
2022/10/04 05:24:59;;;;;;;1.40;1.30;;;;;;;21.15;41.00;95341.00;6244450;27;103747;-68
2022/10/04 05:28:05;;;;;;;1.40;1.10;;;;;;;21.18;41.06;95345.78;6232500;27;103772;-68
2022/10/04 05:31:35;;;;;;;2.47;1.47;;;;;;;21.15;41.11;95343.66;6213613;27;103300;-67
2022/10/04 05:34:44;;;;;;;2.60;1.47;;;;;;;21.14;40.45;95347.41;6223164;27;103195;-68
2022/10/04 05:38:02;;;;;;;7.20;1.87;;;;;;;21.15;40.60;95359.63;6230953;27;103347;-67
2022/10/04 05:41:09;;;;;;;2.20;1.57;;;;;;;21.16;40.23;95359.34;6218517;27;104813;-66
2022/10/04 05:44:20;;;;;;;2.23;2.03;;;;;;;21.16;40.04;95363.88;6224096;27;103175;-66
2022/10/04 05:47:27;;;;;;;3.20;2.20;;;;;;;21.17;39.55;95360.13;6221198;27;105550;-65
2022/10/04 05:50:34;;;;;;;3.77;2.23;;;;;;;21.17;39.69;95373.44;6241909;27;105379;-68
2022/10/04 05:53:38;;;;;;;2.97;2.63;;;;;;;21.18;39.35;95375.03;6233831;27;102975;-66
2022/10/04 05:57:15;;;;;;;2.93;2.73;;;;;;;21.20;39.49;95378.97;6248107;27;106989;-70
2022/10/04 06:00:20;;;;;;;4.07;2.83;;;;;;;21.23;39.11;95368.84;6225437;27;103507;-64
2022/10/04 06:03:45;;;;;;;2.70;2.50;;;;;;;21.25;39.21;95378.09;6220660;27;104161;-64
2022/10/04 06:06:55;;;;;;;3.00;2.20;;;;;;;21.27;39.24;95391.91;6241296;27;103500;-64
2022/10/04 06:10:25;;;;;;;5.10;2.33;;;;;;;21.26;38.94;95397.53;6249277;27;103058;-64
2022/10/04 06:13:58;;;;;;;3.30;2.43;;;;;;;21.29;39.28;95399.59;6252819;27;104700;-64
2022/10/04 06:17:29;;;;;;;4.90;2.43;;;;;;;21.31;39.01;95414.19;6207648;27;104025;-65
2022/10/04 06:21:01;;;;;;;3.03;2.43;;;;;;;21.32;38.67;95412.31;6230958;27;103055;-65
2022/10/04 06:24:11;;;;;;;6.17;2.87;;;;;;;21.42;38.73;95410.28;6237461;27;103262;-66
2022/10/04 06:27:20;;;;;;;3.17;2.80;;;;;;;21.47;38.79;95412.84;6215493;27;104149;-65
2022/10/04 06:30:24;;;;;;;6.63;2.10;;;;;;;21.52;38.97;95420.78;6234644;27;105572;-69
2022/10/04 06:33:43;;;;;;;2.53;1.80;;;;;;;21.51;39.61;95421.88;6246085;27;102932;-65
2022/10/04 06:37:04;;;;;;;5.70;2.27;;;;;;;21.61;40.97;95422.75;6237949;27;103165;-72
2022/10/04 06:40:37;;;;;;;4.90;2.40;;;;;;;21.63;39.75;95424.03;6223069;27;105006;-65
2022/10/04 06:44:04;;;;;;;3.47;2.07;;;;;;;21.48;38.79;95419.75;6226501;27;105851;-65
2022/10/04 06:47:24;;;;;;;2.27;1.90;;;;;;;21.45;38.68;95424.88;6226554;27;103177;-65
2022/10/04 06:50:35;;;;;;;4.07;2.40;;;;;;;21.44;38.64;95424.09;6211029;27;103054;-67
2022/10/04 06:53:50;;;;;;;3.53;2.13;;;;;;;21.48;38.43;95427.75;6225972;27;105435;-65
2022/10/04 06:57:21;;;;;;;4.80;2.23;;;;;;;21.55;38.86;95427.38;6224433;27;103524;-65
2022/10/04 07:00:26;;;;;;;2.17;2.03;;;;;;;21.67;38.70;95432.22;6217775;27;103140;-65
2022/10/04 07:03:38;;;;;;;2.77;2.47;;;;;;;21.70;39.50;95429.00;6216772;27;103119;-66
2022/10/04 07:06:48;;;;;;;2.00;1.90;;;;;;;21.68;39.03;95431.97;6223223;28;103421;-66
2022/10/04 07:09:54;;;;;;;1.80;1.70;;;;;;;21.66;38.80;95435.97;6222311;27;103189;-64
2022/10/04 07:13:15;;;;;;;5.73;2.23;;;;;;;21.64;39.21;95438.16;6215217;27;103717;-65
2022/10/04 07:16:39;;;;;;;3.50;1.83;;;;;;;21.65;38.90;95440.50;6224575;27;103362;-63
2022/10/04 07:19:46;;;;;;;2.07;1.87;;;;;;;21.63;39.13;95439.22;6229929;27;104970;-63
2022/10/04 07:22:58;;;;;;;2.03;1.83;;;;;;;21.59;38.54;95447.03;6224647;28;104211;-63
2022/10/04 07:26:06;;;;;;;2.30;2.10;;;;;;;21.56;39.11;95450.28;6225427;27;105843;-63
2022/10/04 07:29:22;;;;;;;2.10;1.73;;;;;;;21.54;38.50;95455.09;6228809;27;103326;-63
2022/10/04 07:32:28;;;;;;;1.83;1.73;;;;;;;21.53;38.81;95453.53;6224493;28;104189;-64
2022/10/04 07:35:43;;;;;;;2.30;2.10;;;;;;;21.54;38.27;95456.97;6213569;27;104139;-67
2022/10/04 07:38:53;;;;;;;1.90;1.80;;;;;;;21.52;38.59;95466.06;6224898;27;104046;-64
2022/10/04 07:42:01;;;;;;;2.20;2.00;;;;;;;21.52;38.23;95458.06;6224715;27;103302;-65
2022/10/04 07:45:16;;;;;;;2.07;1.87;;;;;;;21.50;38.18;95457.53;6220706;27;103314;-64
2022/10/04 07:48:23;;;;;;;2.10;1.90;;;;;;;21.48;38.19;95457.03;6216120;27;105095;-64
2022/10/04 07:51:34;;;;;;;2.73;1.90;;;;;;;21.48;38.52;95467.69;6224941;27;102998;-64
2022/10/04 07:54:43;;;;;;;2.73;1.80;;;;;;;21.48;38.21;95461.56;6221093;28;103051;-65
2022/10/04 07:57:57;;;;;;;2.03;1.83;;;;;;;21.42;37.27;95476.84;6216435;28;103998;-65
2022/10/04 08:01:06;;;;;;;1.80;1.70;;;;;;;21.43;37.92;95475.75;6224246;27;104486;-64
2022/10/04 08:04:28;;;;;;;3.07;2.00;;;;;;;21.42;37.23;95468.88;6224561;27;103255;-64
2022/10/04 08:07:45;;;;;;;2.33;1.87;;;;;;;21.41;37.27;95471.81;6222232;28;104474;-67
2022/10/04 08:11:00;;;;;;;2.00;1.80;;;;;;;21.38;37.05;95473.19;6214464;27;102945;-65
2022/10/04 08:14:18;;;;;;;2.57;1.93;;;;;;;21.36;37.35;95467.38;6224693;27;105906;-67
2022/10/04 08:17:36;;;;;;;3.13;2.00;;;;;;;21.36;36.97;95466.59;6221183;27;106478;-65
2022/10/04 08:20:48;;;;;;;2.10;2.00;;;;;;;21.35;36.89;95471.13;6216442;27;103274;-65
2022/10/04 08:24:14;;;;;;;3.20;2.10;;;;;;;21.35;36.88;95468.47;6228109;27;105430;-68
2022/10/04 08:27:30;;;;;;;2.03;1.93;;;;;;;21.35;36.84;95457.03;6222602;27;103140;-64
2022/10/04 08:30:47;;;;;;;2.70;2.50;;;;;;;21.42;36.99;95460.09;6224680;28;104088;-67
2022/10/04 08:34:09;;;;;;;2.83;2.53;;;;;;;21.48;37.72;95458.91;6216967;27;102950;-65
2022/10/04 08:37:28;;;;;;;2.40;2.20;;;;;;;21.50;37.47;95456.75;6221610;27;103333;-67
2022/10/04 08:41:13;;;;;;;2.20;2.10;;;;;;;21.56;37.58;95458.25;6224015;27;103865;-65
2022/10/04 08:44:50;;;;;;;2.47;2.00;;;;;;;21.69;37.50;95446.06;6215415;28;105675;-65
2022/10/04 08:48:25;;;;;;;2.27;2.10;;;;;;;21.73;37.12;95452.38;6223086;27;103205;-65
2022/10/04 08:52:12;;;;;;;2.10;2.00;;;;;;;21.77;37.25;95448.03;6224499;27;105978;-64
2022/10/04 08:55:52;;;;;;;3.53;2.47;;;;;;;21.83;37.44;95449.56;6212771;27;104725;-65
2022/10/04 08:59:22;;;;;;;4.80;2.50;;;;;;;21.90;37.19;95451.84;6219079;28;106206;-65
2022/10/04 09:02:47;;;;;;;4.83;2.87;;;;;;;21.91;37.49;95446.22;6222998;28;104542;-66
2022/10/04 09:06:00;;;;;;;4.60;2.70;;;;;;;21.98;37.28;95451.16;6213884;27;103183;-65
2022/10/04 09:09:48;;;;;;;2.80;2.40;;;;;;;22.01;37.83;95448.72;6226949;27;107396;-64
2022/10/04 09:13:16;;;;;;;4.47;2.70;;;;;;;22.04;37.13;95442.78;6174246;27;103216;-65
2022/10/04 09:16:27;;;;;;;4.90;3.20;;;;;;;22.05;37.11;95441.72;6218984;27;103860;-65
2022/10/04 09:19:47;;;;;;;2.80;2.60;;;;;;;22.11;37.25;95439.72;6217079;28;103059;-64
2022/10/04 09:22:58;;;;;;;3.10;2.70;;;;;;;22.14;36.98;95451.66;6222990;27;103062;-68
2022/10/04 09:26:20;;;;;;;2.97;2.30;;;;;;;22.15;37.03;95453.25;6222742;27;103070;-64
2022/10/04 09:29:51;;;;;;;2.53;2.33;;;;;;;22.09;36.62;95463.22;6211888;27;103285;-65
2022/10/04 09:33:29;;;;;;;3.40;2.70;;;;;;;22.07;36.74;95474.19;6222269;28;104207;-65
2022/10/04 09:36:49;;;;;;;4.80;2.70;;;;;;;22.05;36.84;95473.69;6222947;27;106502;-65
2022/10/04 09:40:29;;;;;;;3.47;2.50;;;;;;;22.07;36.57;95463.53;6213459;27;102755;-64
2022/10/04 09:44:12;;;;;;;3.93;2.53;;;;;;;22.10;36.29;95467.47;6217714;27;103931;-66
2022/10/04 09:47:30;;;;;;;3.57;2.27;;;;;;;22.10;36.11;95462.13;6222721;27;104356;-64
2022/10/04 09:51:07;;;;;;;2.40;2.20;;;;;;;22.19;36.58;95457.72;6216880;27;103242;-65
2022/10/04 09:54:44;;;;;;;2.57;1.90;;;;;;;22.27;36.73;95457.00;6221210;27;102979;-64
2022/10/04 09:58:14;;;;;;;2.23;2.03;;;;;;;22.29;37.06;95462.81;6222150;27;103216;-65
2022/10/04 10:01:28;;;;;;;2.17;1.97;;;;;;;22.29;37.16;95464.72;6220641;28;103273;-65
2022/10/04 10:04:48;;;;;;;3.20;2.00;;;;;;;22.28;37.02;95461.25;6211915;27;105378;-65
2022/10/04 10:08:00;;;;;;;1.93;1.80;;;;;;;22.20;36.96;95461.16;6223106;27;103828;-68
2022/10/04 10:14:56;;;;;;;2.07;1.80;;;;;;;22.13;36.87;95466.09;6210974;28;103688;-64
2022/10/04 10:18:08;;;;;;;2.30;2.10;;;;;;;22.14;36.47;95462.31;6222505;27;103184;-65
2022/10/04 10:21:29;;;;;;;3.03;2.60;;;;;;;22.11;36.52;95463.72;6222054;27;103310;-68
2022/10/04 10:25:10;;;;;;;2.33;2.13;;;;;;;22.08;36.95;95464.31;6217061;27;103070;-68
2022/10/04 10:28:35;;;;;;;2.10;2.00;;;;;;;22.09;37.29;95457.88;6205324;28;103212;-64
2022/10/04 10:31:55;;;;;;;2.03;1.93;;;;;;;22.09;37.26;95471.22;6223526;27;105945;-64
2022/10/04 10:35:28;;;;;;;2.43;2.23;;;;;;;22.06;37.03;95466.47;6220163;27;103819;-65
2022/10/04 10:38:57;;;;;;;2.40;2.20;;;;;;;22.03;37.12;95465.19;6211243;27;103405;-66
2022/10/04 10:42:26;;;;;;;2.83;2.10;;;;;;;22.01;37.31;95475.38;6218148;27;103063;-65
2022/10/04 10:45:59;;;;;;;2.23;2.13;;;;;;;21.98;37.27;95475.94;6224612;27;103055;-64
2022/10/04 10:49:22;;;;;;;2.80;2.40;;;;;;;21.93;37.72;95478.69;6211045;27;106389;-65
2022/10/04 10:53:04;;;;;;;2.60;2.40;;;;;;;21.92;37.72;95490.44;6225061;27;103237;-65
2022/10/04 10:56:46;;;;;;;2.10;2.00;;;;;;;21.90;37.08;95468.63;6225543;28;104385;-64
2022/10/04 11:00:18;;;;;;;2.43;2.23;;;;;;;21.90;37.29;95473.97;6136449;28;102866;-64
2022/10/04 11:03:47;;;;;;;2.67;2.47;;;;;;;21.89;37.46;95468.94;6145015;27;103265;-66
2022/10/04 11:07:36;;;;;;;2.13;2.00;;;;;;;21.88;37.57;95470.81;6228538;27;104128;-64
2022/10/04 11:11:03;;;;;;;2.60;2.40;;;;;;;21.87;37.63;95468.44;6187648;27;103083;-65
2022/10/04 11:14:35;;;;;;;2.50;2.30;;;;;;;21.90;37.59;95467.84;6227119;27;105662;-65
2022/10/04 11:18:06;;;;;;;2.60;2.40;;;;;;;21.92;37.85;95471.00;6224145;27;103040;-64
2022/10/04 11:21:34;;;;;;;3.97;2.60;;;;;;;21.91;37.54;95464.09;6221939;28;103327;-66
2022/10/04 11:25:03;;;;;;;2.63;2.43;;;;;;;21.90;37.81;95473.16;6221879;27;103081;-65
2022/10/04 11:28:13;;;;;;;2.67;2.47;;;;;;;21.90;38.09;95468.63;6223865;27;105267;-66
2022/10/04 11:31:54;;;;;;;2.00;1.90;;;;;;;21.87;37.64;95473.75;6227079;27;105164;-64
2022/10/04 11:35:33;;;;;;;3.00;2.80;;;;;;;21.88;37.87;95476.13;6179466;27;104745;-64
2022/10/04 11:38:52;;;;;;;2.80;2.60;;;;;;;21.90;37.44;95478.50;6220696;27;103158;-64
2022/10/04 11:42:01;;;;;;;2.87;2.67;;;;;;;21.89;38.12;95475.03;6226513;27;104913;-65
2022/10/04 11:45:32;;;;;;;2.57;2.37;;;;;;;21.86;37.99;95472.97;6215520;28;105637;-64
2022/10/04 11:48:47;;;;;;;2.90;2.70;;;;;;;21.90;37.81;95473.97;6224376;27;103077;-64
2022/10/04 11:52:18;;;;;;;2.70;2.50;;;;;;;21.88;38.17;95476.13;6222308;27;104227;-65
2022/10/04 11:55:53;;;;;;;2.43;2.20;;;;;;;21.88;37.54;95468.13;6218827;28;104123;-64
2022/10/04 11:59:11;;;;;;;2.50;2.30;;;;;;;21.87;37.58;95473.75;6221966;27;103245;-64
2022/10/04 12:02:41;;;;;;;2.53;2.40;;;;;;;21.84;37.40;95474.31;6224130;27;105102;-64
2022/10/04 12:06:03;;;;;;;2.73;2.50;;;;;;;21.84;38.02;95479.66;6228477;27;105131;-64
2022/10/04 12:09:20;;;;;;;2.63;2.43;;;;;;;21.84;37.78;95477.78;6215287;27;106646;-64
2022/10/04 12:12:53;;;;;;;2.50;2.30;;;;;;;21.84;37.74;95476.97;6223092;27;103524;-64
2022/10/04 12:16:29;;;;;;;3.60;2.60;;;;;;;21.84;37.49;95476.97;6225049;27;105762;-65
2022/10/04 12:19:59;;;;;;;2.60;2.40;;;;;;;21.82;37.35;95471.94;6187566;27;104357;-65
2022/10/04 12:23:31;;;;;;;2.60;2.50;;;;;;;21.80;37.65;95469.56;6221488;27;103196;-64
2022/10/04 12:27:04;;;;;;;2.80;2.60;;;;;;;21.78;37.37;95466.41;6223667;27;103325;-65
2022/10/04 12:30:50;;;;;;;3.10;2.80;;;;;;;21.77;37.44;95464.81;6214128;28;104236;-64
2022/10/04 12:34:05;;;;;;;2.53;2.33;;;;;;;21.77;37.81;95480.00;6148664;27;104104;-65
2022/10/04 12:37:20;;;;;;;2.83;2.63;;;;;;;21.75;37.80;95482.19;6224655;27;106162;-64
2022/10/04 12:40:32;;;;;;;2.83;2.63;;;;;;;21.73;37.86;95479.03;6223694;27;103166;-66
2022/10/04 12:43:46;;;;;;;2.63;2.43;;;;;;;21.70;37.15;95472.41;6215104;27;104441;-64
2022/10/04 12:47:03;;;;;;;3.40;2.77;;;;;;;21.72;37.49;95478.22;6227927;27;104688;-65
2022/10/04 12:50:17;;;;;;;2.70;2.50;;;;;;;21.71;37.24;95474.00;6223648;28;105517;-65
2022/10/04 12:53:33;;;;;;;2.67;2.47;;;;;;;21.72;37.23;95472.91;6213603;27;103068;-65
2022/10/04 12:56:47;;;;;;;2.50;2.40;;;;;;;21.72;37.52;95478.22;6224083;28;104571;-64
2022/10/04 13:00:02;;;;;;;2.57;2.37;;;;;;;21.73;36.99;95484.34;6224260;27;103157;-64
2022/10/04 13:03:25;;;;;;;2.70;2.60;;;;;;;21.71;37.23;95476.66;6217814;27;103607;-64
2022/10/04 13:06:53;;;;;;;2.73;2.57;;;;;;;21.72;36.81;95474.78;6218800;27;106602;-65
2022/10/04 13:10:12;;;;;;;3.00;2.70;;;;;;;21.68;36.82;95471.13;6226805;27;103044;-65
2022/10/04 13:13:46;;;;;;;3.20;2.83;;;;;;;21.67;36.86;95478.28;6223375;27;103952;-64
2022/10/04 13:16:56;;;;;;;2.90;2.70;;;;;;;21.69;36.70;95467.38;6212829;27;103670;-65
2022/10/04 13:20:40;;;;;;;2.73;2.60;;;;;;;21.68;37.08;95474.56;6222306;28;103627;-66
2022/10/04 13:23:58;;;;;;;2.70;2.50;;;;;;;21.67;36.82;95464.19;6222992;28;102999;-68
2022/10/04 13:27:04;;;;;;;2.87;2.67;;;;;;;21.67;36.70;95467.63;6211951;27;103159;-64
2022/10/04 13:30:19;;;;;;;2.80;2.60;;;;;;;21.65;36.90;95474.34;6221687;27;103228;-64
2022/10/04 13:33:33;;;;;;;2.83;2.63;;;;;;;21.63;36.63;95473.84;6221672;27;103812;-64
2022/10/04 13:36:50;;;;;;;2.60;2.50;;;;;;;21.63;37.03;95484.50;6221109;27;103581;-66
2022/10/04 13:40:32;;;;;;;2.60;2.40;;;;;;;21.61;36.36;95481.34;6212267;28;103968;-64
2022/10/04 13:44:04;;;;;;;2.80;2.60;;;;;;;21.59;36.41;95481.63;6226200;27;104164;-65
2022/10/04 13:47:28;;;;;;;2.50;2.40;;;;;;;21.60;36.46;95485.88;6216740;28;105457;-65
2022/10/04 13:50:44;;;;;;;2.87;2.63;;;;;;;21.60;36.36;95485.09;6211671;27;103631;-64
2022/10/04 13:57:24;;;;;;;2.53;2.40;;;;;;;21.56;36.39;95487.56;6249709;27;103113;-67
2022/10/04 14:00:51;;;;;;;2.87;2.67;;;;;;;21.54;36.41;95491.59;6245101;27;102972;-67
2022/10/04 14:04:10;;;;;;;2.67;2.47;;;;;;;21.51;35.96;95500.97;6244997;27;103823;-66
2022/10/04 14:07:45;;;;;;;2.60;2.40;;;;;;;21.49;36.20;95501.22;6241505;27;103089;-66
2022/10/04 14:11:20;;;;;;;2.87;2.67;;;;;;;21.46;36.22;95504.47;6244273;27;103572;-67
2022/10/04 14:15:08;;;;;;;4.07;2.90;;;;;;;21.44;36.09;95503.97;6239273;27;103249;-66
2022/10/04 14:18:53;;;;;;;3.20;3.00;;;;;;;21.43;36.38;95507.72;6223801;27;104213;-66
2022/10/04 14:22:43;;;;;;;3.73;3.43;;;;;;;21.41;36.31;95515.19;6249999;27;103329;-66
2022/10/04 14:26:06;;;;;;;4.60;4.30;;;;;;;21.39;36.03;95522.69;6211016;27;104263;-66
2022/10/04 14:29:45;;;;;;;3.70;3.43;;;;;;;21.37;35.81;95519.53;6248634;27;103131;-66
2022/10/04 14:33:15;;;;;;;3.77;3.47;;;;;;;21.37;36.21;95532.84;6238057;27;103255;-66
2022/10/04 14:37:05;;;;;;;3.67;3.37;;;;;;;21.38;36.20;95530.97;6240269;27;103207;-66
2022/10/04 14:40:45;;;;;;;4.07;3.77;;;;;;;21.36;36.32;95531.25;6192342;28;103823;-66
2022/10/04 14:44:14;;;;;;;3.50;3.30;;;;;;;21.40;35.86;95544.78;6224897;27;104692;-66
2022/10/04 14:47:41;;;;;;;3.30;3.10;;;;;;;21.35;35.98;95540.34;6223682;27;104863;-65
2022/10/04 14:51:10;;;;;;;3.27;3.07;;;;;;;21.38;36.53;95547.72;6248591;27;104060;-62
2022/10/04 14:54:28;;;;;;;4.80;3.90;;;;;;;21.41;35.96;95546.38;6231972;27;103157;-63
2022/10/04 14:57:52;;;;;;;3.80;3.37;;;;;;;21.40;36.03;95544.78;6215671;27;102991;-66
2022/10/04 15:01:14;;;;;;;3.53;3.20;;;;;;;21.45;36.63;95561.47;6221774;27;104827;-64
2022/10/04 15:04:29;;;;;;;7.10;3.53;;;;;;;21.49;37.01;95561.66;6232689;27;102915;-65
2022/10/04 15:07:36;;;;;;;3.13;2.93;;;;;;;21.49;37.08;95565.13;6246239;27;103033;-65
2022/10/04 15:10:49;;;;;;;5.23;3.30;;;;;;;21.49;37.21;95567.00;6238573;27;105098;-65
2022/10/04 15:13:54;;;;;;;3.50;3.20;;;;;;;21.51;37.30;95575.53;6249957;27;106215;-67
2022/10/04 15:17:01;;;;;;;3.90;3.20;;;;;;;21.52;37.11;95587.75;6249661;27;106278;-65
2022/10/04 15:20:18;;;;;;;5.13;2.90;;;;;;;21.55;37.51;95591.69;6243464;27;105338;-64
2022/10/04 15:23:33;;;;;;;5.80;3.20;;;;;;;21.58;37.65;95596.44;6249663;27;104677;-67